Historyczne dane pomiarowe

Dodano dane terminowe – wersja testowa.

Dane z okresu 1951-2019

Wersja bazy: 1.34 [2019-03-16, lista zmian], aktualizacja planowana na 2019-04-15

Dane meteo z obszaru Polski uzyskane na podstawie danych udostępnionych przez Instytut Meteorologii i Gospodarki Wodnej – Państwowy Instytut Badawczy.

 

Wybierz Datę:    

       

TemperaturaWilgotnośćWiatrCiśnienieOpadyŚniegCzas trwania zjawisk
 Stacja t tx tn tng RH VA  wxwx mslp ppp RRR   cm mm wxwxwxwxwxwxwx
1994-08-14 13.1 17.4 10.5 9.5-------- 7.2--- 0.0 9.5-------
1994-08-13 16.1 20.3 12.9 14.0-------- 6.0--- 0.0 1.0-------
1994-08-12 19.1 24.4 15.1 13.9-------- 0.1--- 0.0 4.3-------
1994-08-11 22.0 26.7 16.3 15.0-------- 0.0--- 0.0 5.8-------
1994-08-10 19.0 27.8 8.8 6.0-------- 0.0--- 0.0 8.5-------
1994-08-09 19.2 26.0 11.2 7.7-------- 0.0--- 0.0 10.2-------
1994-08-08 19.5 26.4 10.8 8.0-------- 0.0--- 0.0 11.8-------
1994-08-07 19.2 25.0 11.7 9.0-------- 0.0--- 0.0 11.2-------
1994-08-06 22.3 31.4 15.4 12.8-------- 0.0--- 0.0 9.2-------
1994-08-05 24.5 33.2 12.3 9.5-------- 0.0--- 0.0 13.4-------
1994-08-04 19.8 29.0 9.8 7.5-------- 0.0--- 0.0 12.4-------
1994-08-03 22.2 26.5 18.4 18.3-------- 0.0--- 0.0 12.0-------
1994-08-02 24.9 31.0 20.4 17.0-------- 0.0--- 0.0 5.0-------
1994-08-01 28.9 36.8 20.0 17.5-------- 0.0--- 0.0 9.6-------
1994-07-31 28.6 37.5 20.7 16.6-------- 0.0--- 0.0 10.0-------
1994-07-30 24.0 34.9 16.9 14.6-------- 0.0--- 0.0 8.9-------
1994-07-29 26.0 36.9 13.9 13.4-------- 0.0--- 0.0 12.2-------
1994-07-28 24.1 33.0 13.9 11.1-------- 0.0--- 0.0 13.1-------
1994-07-27 25.8 31.6 18.0 14.6-------- 0.0--- 0.0 11.7-------
1994-07-26 27.8 35.3 19.5 16.4-------- 0.0--- 0.0 11.0-------
1994-07-25 25.2 33.7 13.7 10.0-------- 0.0--- 0.0 13.5-------
1994-07-24 24.5 32.8 15.1 10.8-------- 0.0--- 0.0 13.1-------
1994-07-23 24.3 31.8 14.9 10.0-------- 0.0--- 0.0 9.3-------
1994-07-22 22.2 30.8 12.8 8.6-------- 0.0--- 0.0 14.5-------
1994-07-21 20.4 28.7 9.0 5.3-------- 0.0--- 0.0 14.6-------
1994-07-20 18.5 26.0 7.2 3.1-------- 0.0--- 0.0 14.2-------
1994-07-19 18.5 23.8 8.6 3.8-------- 0.0--- 0.0 14.2-------
1994-07-18 17.2 23.5 7.2 3.9-------- 0.0--- 0.0 12.8-------
1994-07-17 19.2 22.6 15.1 13.1-------- 0.0--- 0.0 7.4-------
1994-07-16 20.7 25.8 14.5 12.1-------- 0.0--- 0.0 10.8-------
1994-07-15 24.3 33.0 17.2 12.8-------- 8.4--- 0.0 8.2-------
1994-07-14 25.5 33.2 16.0 11.0-------- 0.0--- 0.0 11.4-------
1994-07-13 25.4 32.4 15.9 10.3-------- 0.0--- 0.0 14.2-------
1994-07-12 23.4 31.6 9.8 6.5-------- 0.0--- 0.0 14.6-------
1994-07-11 19.8 28.5 7.4 3.4-------- 0.0--- 0.0 13.8-------
1994-07-10 18.9 23.8 11.7 6.7-------- 0.0--- 0.0 12.7-------
1994-07-09 17.7 23.6 11.0 6.5-------- 0.0--- 0.0 12.6-------
1994-07-08 17.3 23.4 13.0 10.6-------- 0.1--- 0.0 3.5-------
1994-07-07 16.7 25.4 6.1 0.9-------- 0.0--- 0.0 11.1-------
1994-07-06 17.1 23.0 13.2 13.0-------- 0.0--- 0.0 8.2-------
1994-07-05 18.1 24.5 11.3 8.8-------- 0.7--- 0.0 8.4-------
1994-07-04 21.0 28.6 12.5 6.9-------- 0.0--- 0.0 13.6-------
1994-07-03 20.3 27.4 11.3 7.0-------- 0.0--- 0.0 14.5-------
1994-07-02 17.4 25.8 4.2 0.3-------- 0.0--- 0.0 13.9-------
1994-07-01 15.0 19.4 8.4 3.8-------- 0.0--- 0.0 13.4-------
1994-06-30 18.0 21.0 14.1 13.6-------- 0.0--- 0.0 12.4-------
1994-06-29 22.5 33.2 14.6 11.5-------- 0.5--- 0.0 7.4-------
1994-06-28 19.9 27.5 10.5 7.9-------- 0.0--- 0.0 13.3-------
1994-06-27 19.1 24.5 12.8 9.7-------- 0.0--- 0.0 6.2-------
1994-06-26 21.0 30.0 13.1 7.9-------- 0.0--- 0.0 12.4-------
1994-06-25 16.3 25.5 2.5 -1.8-------- 0.0--- 0.0 14.9-------
1994-06-24 13.3 17.4 8.3 7.2-------- 0.0--- 0.0 11.9-------
1994-06-23 13.6 18.4 10.4 9.1-------- 0.5--- 0.0 12.8-------
1994-06-22 17.6 21.2 13.6 13.4-------- 0.0--- 0.0 4.1-------
1994-06-21 15.3 22.1 4.7 1.4-------- 2.1--- 0.0 9.0-------
1994-06-20 14.3 17.8 10.3 9.1-------- 0.0--- 0.0 14.3-------
1994-06-19 14.5 18.4 10.2 9.8-------- 0.2--- 0.0 0.0-------
1994-06-18 10.8 16.0 3.7 0.2-------- 4.6--- 0.0 1.3-------
1994-06-17 10.6 14.7 5.4 4.2-------- 0.0--- 0.0 10.3-------
1994-06-16 11.1 14.7 8.5 7.6-------- 4.4--- 0.0 7.3-------
344.9 ms

 

Źródłem pochodzenia danych jest Instytut Meteorologii i Gospodarki Wodnej – Państwowy Instytut Badawczy. Dane Instytutu Meteorologii i Gospodarki Wodnej – Państwowego Instytutu Badawczego zostały przetworzone.

Dane źródłowe można odnaleźć na stronie https://dane.imgw.pl